createdAt,value
2023-05-21T00:01:16.425Z,959.67
2023-05-21T00:03:46.372Z,960.63
2023-05-21T00:06:15.534Z,958.00
2023-05-21T00:08:43.706Z,961.05
2023-05-21T00:11:11.953Z,962.38
2023-05-21T00:13:39.961Z,964.00
2023-05-21T00:16:07.841Z,963.20
2023-05-21T00:18:36.240Z,965.90
2023-05-21T00:21:03.826Z,963.75
2023-05-21T00:23:32.928Z,962.58
2023-05-21T00:26:00.663Z,961.20
2023-05-21T00:28:28.346Z,963.93
2023-05-21T00:30:57.030Z,959.60
2023-05-21T00:33:26.786Z,960.22
2023-05-21T00:35:54.448Z,964.30
2023-05-21T00:38:23.368Z,962.17
2023-05-21T00:40:51.387Z,964.08
2023-05-21T00:43:19.027Z,964.90
2023-05-21T00:45:47.637Z,963.33
2023-05-21T00:48:16.051Z,963.47
2023-05-21T00:50:45.001Z,962.58
2023-05-21T00:53:15.457Z,965.83
2023-05-21T00:55:43.081Z,964.90
2023-05-21T00:58:10.863Z,962.05
2023-05-21T01:00:40.625Z,962.63
2023-05-21T01:03:08.598Z,959.83
2023-05-21T01:05:37.528Z,965.75
2023-05-21T01:08:05.833Z,947.42
2023-05-21T01:10:33.675Z,951.95
2023-05-21T01:13:01.947Z,956.30
2023-05-21T01:15:30.411Z,958.67
2023-05-21T01:17:58.422Z,955.28
2023-05-21T01:20:27.685Z,651.30
2023-05-21T01:22:56.928Z,942.63
2023-05-21T01:25:25.395Z,923.90
2023-05-21T01:27:53.251Z,929.70
2023-05-21T01:30:22.141Z,923.92
2023-05-21T01:33:02.930Z,920.70
2023-05-21T01:35:37.493Z,923.88
2023-05-21T01:38:17.434Z,929.20
2023-05-21T01:41:03.975Z,912.05
2023-05-21T01:43:39.285Z,926.70
2023-05-21T01:46:10.008Z,921.78
2023-05-21T01:48:38.759Z,938.03
2023-05-21T01:51:06.902Z,935.43
2023-05-21T01:53:34.452Z,931.42
2023-05-21T01:56:02.972Z,926.65
2023-05-21T01:58:31.140Z,930.90
2023-05-21T02:00:59.200Z,932.17
2023-05-21T02:03:31.088Z,927.63
2023-05-21T02:05:59.706Z,929.00
2023-05-21T02:08:27.977Z,924.83
2023-05-21T02:10:55.854Z,927.80
2023-05-21T02:13:26.507Z,926.63
2023-05-21T02:15:55.300Z,927.20
2023-05-21T02:18:23.929Z,928.03
2023-05-21T02:20:51.968Z,924.20
2023-05-21T02:23:19.585Z,927.35
2023-05-21T02:25:47.321Z,922.70
2023-05-21T02:28:15.932Z,928.37
2023-05-21T02:30:43.889Z,925.10
2023-05-21T02:33:14.382Z,930.42
2023-05-21T02:35:42.119Z,928.28
2023-05-21T02:38:10.582Z,930.97
2023-05-21T02:40:38.253Z,930.45
2023-05-21T02:43:06.293Z,928.65
2023-05-21T02:45:35.289Z,930.85
2023-05-21T02:48:03.378Z,930.95
2023-05-21T02:50:34.374Z,929.75
2023-05-21T02:53:02.262Z,931.80
2023-05-21T02:55:31.323Z,933.13
2023-05-21T02:57:59.423Z,930.53
2023-05-21T03:00:26.980Z,932.13
2023-05-21T03:02:55.452Z,931.72
2023-05-21T03:05:24.540Z,924.30
2023-05-21T03:07:53.424Z,926.23
2023-05-21T03:10:21.346Z,927.63
2023-05-21T03:12:49.013Z,928.00
2023-05-21T03:15:17.123Z,931.65
2023-05-21T03:17:45.695Z,923.58
2023-05-21T03:20:16.498Z,932.00
2023-05-21T03:22:45.579Z,930.33
2023-05-21T03:25:13.820Z,931.33
2023-05-21T03:27:41.451Z,929.55
2023-05-21T03:30:24.153Z,934.40
2023-05-21T03:33:12.470Z,933.33
2023-05-21T03:35:40.956Z,936.45
2023-05-21T03:38:08.582Z,924.65
2023-05-21T03:40:36.499Z,929.42
2023-05-21T03:43:04.860Z,930.25
2023-05-21T03:45:32.624Z,931.03
2023-05-21T03:48:23.125Z,933.43
2023-05-21T03:50:51.687Z,932.22
2023-05-21T03:53:19.289Z,929.00
2023-05-21T03:55:47.396Z,934.80
2023-05-21T03:58:14.884Z,931.72
2023-05-21T04:00:42.956Z,930.65
2023-05-21T04:03:11.774Z,934.55
2023-05-21T04:05:40.052Z,934.35
2023-05-21T04:08:08.044Z,933.72
2023-05-21T04:10:36.257Z,936.05
2023-05-21T04:13:03.897Z,934.50
2023-05-21T04:15:31.420Z,937.03
2023-05-21T04:17:59.031Z,940.43
2023-05-21T04:20:27.097Z,938.23
2023-05-21T04:22:55.386Z,941.60
2023-05-21T04:25:23.333Z,944.03
2023-05-21T04:27:51.144Z,946.22
2023-05-21T04:30:20.047Z,945.85
2023-05-21T04:32:48.283Z,950.70
2023-05-21T04:35:16.097Z,951.42
2023-05-21T04:37:46.045Z,950.15
2023-05-21T04:40:18.490Z,946.95
2023-05-21T04:42:46.835Z,948.33
2023-05-21T04:45:14.763Z,952.33
2023-05-21T04:47:45.311Z,956.60
2023-05-21T04:50:12.936Z,950.60
2023-05-21T04:52:40.599Z,953.72
2023-05-21T04:55:08.934Z,954.33
2023-05-21T04:57:36.727Z,960.50
2023-05-21T05:00:05.705Z,959.17
2023-05-21T05:02:38.932Z,964.65
2023-05-21T05:05:06.670Z,967.60
2023-05-21T05:07:34.235Z,968.83
2023-05-21T05:10:01.849Z,967.75
2023-05-21T05:12:29.659Z,972.55
2023-05-21T05:14:57.212Z,972.25
2023-05-21T05:17:25.682Z,978.50
2023-05-21T05:19:53.708Z,979.47
2023-05-21T05:22:21.230Z,982.72
2023-05-21T05:24:48.840Z,984.90
2023-05-21T05:27:16.449Z,987.58
2023-05-21T05:29:45.232Z,990.90
2023-05-21T05:32:12.986Z,986.88
2023-05-21T05:34:40.663Z,988.75
2023-05-21T05:37:08.315Z,992.20
2023-05-21T05:39:36.299Z,990.55
2023-05-21T05:42:04.635Z,984.45
2023-05-21T05:44:32.691Z,974.88
2023-05-21T05:47:00.715Z,981.28
2023-05-21T05:49:28.891Z,978.97
2023-05-21T05:51:56.759Z,984.85
2023-05-21T05:54:24.596Z,985.23
2023-05-21T05:56:52.956Z,987.42
2023-05-21T05:59:21.117Z,994.70
2023-05-21T06:01:50.959Z,987.15
2023-05-21T06:04:18.556Z,992.03
2023-05-21T06:06:47.492Z,994.83
2023-05-21T06:09:15.101Z,1001.17
2023-05-21T06:11:43.088Z,1002.67
2023-05-21T06:14:10.626Z,1006.30
2023-05-21T06:16:39.163Z,1014.47
2023-05-21T06:19:07.381Z,1010.78
2023-05-21T06:21:35.419Z,1001.22
2023-05-21T06:24:05.629Z,1001.35
2023-05-21T06:26:33.208Z,998.72
2023-05-21T06:29:01.512Z,999.00
2023-05-21T06:31:33.010Z,1022.72
2023-05-21T06:34:01.389Z,1022.63
2023-05-21T06:36:30.125Z,1029.38
2023-05-21T06:38:59.297Z,1039.53
2023-05-21T06:41:27.220Z,1026.68
2023-05-21T06:43:58.915Z,1048.70
2023-05-21T06:46:45.139Z,911.53
2023-05-21T06:49:14.454Z,1060.05
2023-05-21T06:51:43.593Z,969.00
2023-05-21T06:54:13.275Z,926.07
2023-05-21T06:56:42.005Z,1046.80
2023-05-21T06:59:09.886Z,1025.18
2023-05-21T07:01:38.202Z,1028.85
2023-05-21T07:04:06.077Z,1059.88
2023-05-21T07:06:34.896Z,1078.75
2023-05-21T07:09:02.567Z,1030.45
2023-05-21T07:11:31.522Z,981.63
2023-05-21T07:14:02.060Z,1050.60
2023-05-21T07:16:31.921Z,1047.82
2023-05-21T07:19:00.214Z,967.57
2023-05-21T07:21:27.798Z,872.63
2023-05-21T07:23:56.729Z,907.78
2023-05-21T07:26:26.350Z,1014.58
2023-05-21T07:28:53.894Z,879.90
2023-05-21T07:31:21.464Z,764.45
2023-05-21T07:33:52.227Z,687.97
2023-05-21T07:36:23.564Z,890.10
2023-05-21T07:38:51.704Z,849.33
2023-05-21T07:41:19.533Z,1006.83
2023-05-21T07:43:48.814Z,960.67
2023-05-21T07:46:17.075Z,1170.03
2023-05-21T07:48:46.640Z,1167.32
2023-05-21T07:51:14.663Z,1158.28
2023-05-21T07:53:42.248Z,1153.32
2023-05-21T07:56:12.433Z,1152.88
2023-05-21T07:58:40.660Z,1152.03
2023-05-21T08:01:08.889Z,1153.30
2023-05-21T08:03:36.660Z,1145.68
2023-05-21T08:06:04.982Z,1158.28
2023-05-21T08:08:33.424Z,1165.90
2023-05-21T08:11:01.779Z,1163.60
2023-05-21T08:13:31.259Z,1157.80
2023-05-21T08:15:59.123Z,1155.63
2023-05-21T08:18:27.694Z,1159.40
2023-05-21T08:20:57.642Z,1162.10
2023-05-21T08:23:27.259Z,1182.60
2023-05-21T08:25:56.765Z,1188.63
2023-05-21T08:28:27.206Z,1172.73
2023-05-21T08:30:55.731Z,1147.28
2023-05-21T08:33:25.733Z,1059.77
2023-05-21T08:35:53.958Z,1083.18
2023-05-21T08:38:27.524Z,641.60
2023-05-21T08:41:07.976Z,870.65
2023-05-21T08:43:37.769Z,594.67
2023-05-21T08:46:06.841Z,687.92
2023-05-21T08:48:39.073Z,674.07
2023-05-21T08:51:06.768Z,955.95
2023-05-21T08:53:39.487Z,1172.00
2023-05-21T08:56:13.167Z,766.28
2023-05-21T08:58:49.061Z,904.35
2023-05-21T09:01:20.329Z,890.67
2023-05-21T09:04:04.836Z,930.13
2023-05-21T09:06:37.870Z,940.67
2023-05-21T09:09:24.366Z,1189.13
2023-05-21T09:11:52.034Z,1201.38
2023-05-21T09:14:21.553Z,1194.82
2023-05-21T09:17:06.836Z,1195.00
2023-05-21T09:19:35.336Z,1198.37
2023-05-21T09:22:04.135Z,1202.90
2023-05-21T09:24:36.073Z,1206.30
2023-05-21T09:27:07.819Z,1206.88
2023-05-21T09:29:35.612Z,1208.20
2023-05-21T09:32:08.856Z,1207.53
2023-05-21T09:34:41.440Z,1207.28
2023-05-21T09:37:23.791Z,1203.25
2023-05-21T09:39:55.874Z,1203.27
2023-05-21T09:42:23.997Z,1203.65
2023-05-21T09:44:51.819Z,1205.65
2023-05-21T09:47:21.327Z,1197.65
2023-05-21T09:49:49.464Z,1193.32
2023-05-21T09:52:26.048Z,1197.43
2023-05-21T09:54:53.902Z,1195.13
2023-05-21T09:57:25.914Z,1191.10
2023-05-21T09:59:54.166Z,1197.50
2023-05-21T10:02:23.912Z,1199.30
2023-05-21T10:04:54.632Z,1201.88
2023-05-21T10:07:26.409Z,1219.13
2023-05-21T10:09:58.012Z,1203.97
2023-05-21T10:12:28.878Z,1228.68
2023-05-21T10:15:05.095Z,1230.53
2023-05-21T10:17:35.035Z,1206.47
2023-05-21T10:20:05.193Z,74.28
2023-05-21T10:22:33.828Z,23.65
2023-05-21T10:25:03.783Z,437.92
2023-05-21T10:27:33.047Z,908.38
2023-05-21T10:30:01.162Z,815.75
2023-05-21T10:32:28.971Z,480.75
2023-05-21T10:34:59.300Z,704.08
2023-05-21T10:37:29.115Z,478.83
2023-05-21T10:39:57.198Z,400.63
2023-05-21T10:42:24.643Z,1123.32
2023-05-21T10:45:32.525Z,901.65
2023-05-21T10:48:26.573Z,575.15
2023-05-21T10:51:09.486Z,9.23
2023-05-21T10:54:14.422Z,12.43
2023-05-21T10:56:55.849Z,10.57
2023-05-21T10:59:35.984Z,8.07
2023-05-21T11:02:05.425Z,7.68
2023-05-21T11:04:35.185Z,10.77
2023-05-21T11:07:03.303Z,8.77
2023-05-21T11:09:31.009Z,16.50
2023-05-21T11:12:00.328Z,11.70
2023-05-21T11:14:36.031Z,9.73
2023-05-21T11:17:12.608Z,11.80
2023-05-21T11:19:47.400Z,12.23
2023-05-21T11:22:25.542Z,11.02
2023-05-21T11:24:56.814Z,12.32
2023-05-21T11:27:34.652Z,232.77
2023-05-21T11:30:06.717Z,153.10
2023-05-21T11:32:39.887Z,315.00
2023-05-21T11:35:08.219Z,1100.90
2023-05-21T11:37:35.979Z,12.32
2023-05-21T11:40:21.431Z,581.28
2023-05-21T11:42:51.351Z,338.33
2023-05-21T11:45:20.983Z,7.63
2023-05-21T11:47:49.846Z,546.17
2023-05-21T11:50:18.327Z,324.60
2023-05-21T11:52:46.448Z,626.15
2023-05-21T11:55:15.905Z,6.75
2023-05-21T11:57:44.860Z,7.85
2023-05-21T12:00:15.498Z,9.07
2023-05-21T12:02:54.019Z,9.95
2023-05-21T12:05:23.475Z,52.28
2023-05-21T12:07:51.168Z,403.52
2023-05-21T12:10:23.805Z,505.85
2023-05-21T12:12:55.619Z,160.77
2023-05-21T12:15:27.612Z,9.07
2023-05-21T12:17:56.217Z,815.50
2023-05-21T12:20:28.216Z,8.75
2023-05-21T12:22:57.411Z,8.95
2023-05-21T12:25:25.206Z,6.47
2023-05-21T12:27:57.998Z,6.22
2023-05-21T12:30:26.595Z,11.45
2023-05-21T12:32:58.035Z,7.80
2023-05-21T12:35:25.736Z,456.63
2023-05-21T12:37:53.907Z,404.00
2023-05-21T12:40:22.417Z,9.80
2023-05-21T12:42:50.791Z,8.07
2023-05-21T12:45:18.970Z,7.97
2023-05-21T12:47:50.812Z,8.50
2023-05-21T12:50:21.588Z,5.57
2023-05-21T12:52:49.343Z,793.03
2023-05-21T12:55:17.137Z,81.30
2023-05-21T12:57:44.843Z,8.38
2023-05-21T13:00:13.212Z,10.07
2023-05-21T13:02:42.729Z,7.25
2023-05-21T13:05:19.455Z,8.27
2023-05-21T13:07:47.906Z,15.55
2023-05-21T13:10:18.970Z,9.25
2023-05-21T13:12:47.260Z,9.00
2023-05-21T13:15:15.319Z,10.68
2023-05-21T13:17:43.004Z,6.28
2023-05-21T13:20:13.276Z,7.63
2023-05-21T13:22:48.739Z,553.15
2023-05-21T13:25:20.180Z,950.15
2023-05-21T13:27:50.571Z,571.13
2023-05-21T13:30:19.142Z,296.45
2023-05-21T13:32:48.428Z,883.20
2023-05-21T13:35:17.398Z,7.00
2023-05-21T13:37:45.524Z,391.58
2023-05-21T13:40:16.090Z,458.75
2023-05-21T13:42:45.667Z,6.63
2023-05-21T13:45:16.046Z,9.32
2023-05-21T13:47:45.446Z,891.22
2023-05-21T13:50:13.666Z,8.80
2023-05-21T13:52:42.240Z,8.43
2023-05-21T13:55:10.735Z,236.60
2023-05-21T13:57:40.703Z,8.70
2023-05-21T14:00:14.316Z,77.60
2023-05-21T14:02:43.508Z,7.57
2023-05-21T14:05:11.937Z,9.77
2023-05-21T14:07:40.193Z,7.43
2023-05-21T14:10:08.924Z,8.45
2023-05-21T14:12:36.696Z,7.28
2023-05-21T14:15:04.733Z,7.80
2023-05-21T14:17:32.723Z,7.10
2023-05-21T14:20:00.573Z,7.13
2023-05-21T14:22:28.231Z,8.07
2023-05-21T14:24:56.460Z,7.95
2023-05-21T14:27:23.952Z,6.28
2023-05-21T14:29:54.812Z,5.38
2023-05-21T14:32:22.436Z,8.20
2023-05-21T14:34:50.185Z,6.88
2023-05-21T14:37:18.255Z,7.35
2023-05-21T14:39:46.311Z,7.07
2023-05-21T14:42:14.236Z,7.95
2023-05-21T14:44:41.889Z,12.40
2023-05-21T14:47:09.915Z,7.57
2023-05-21T14:49:37.428Z,4.88
2023-05-21T14:52:05.434Z,5.53
2023-05-21T14:54:33.040Z,9.13
2023-05-21T14:57:00.623Z,6.07
2023-05-21T14:59:28.255Z,6.80
2023-05-21T15:01:56.111Z,4.00
2023-05-21T15:04:24.471Z,10.90
2023-05-21T15:06:52.345Z,6.28
2023-05-21T15:09:19.868Z,7.47
2023-05-21T15:11:52.416Z,7.45
2023-05-21T15:14:20.989Z,5.35
2023-05-21T15:16:49.452Z,7.63
2023-05-21T15:19:17.619Z,9.05
2023-05-21T15:21:46.161Z,5.68
2023-05-21T15:24:13.835Z,6.80
2023-05-21T15:26:41.813Z,5.63
2023-05-21T15:29:09.549Z,6.15
2023-05-21T15:31:39.534Z,21.40
2023-05-21T15:34:07.482Z,5.97
2023-05-21T15:36:35.165Z,7.85
2023-05-21T15:39:03.754Z,5.07
2023-05-21T15:41:37.676Z,8.30
2023-05-21T15:44:06.036Z,6.05
2023-05-21T15:46:33.861Z,5.72
2023-05-21T15:49:01.965Z,8.82
2023-05-21T15:51:29.734Z,7.75
2023-05-21T15:53:57.597Z,8.90
2023-05-21T15:56:26.782Z,9.52
2023-05-21T15:58:54.482Z,9.23
2023-05-21T16:01:22.803Z,7.93
2023-05-21T16:03:50.829Z,6.15
2023-05-21T16:06:18.673Z,6.97
2023-05-21T16:08:47.905Z,7.22
2023-05-21T16:11:16.681Z,6.13
2023-05-21T16:13:44.747Z,7.05
2023-05-21T16:16:12.376Z,7.00
2023-05-21T16:18:40.562Z,7.80
2023-05-21T16:21:08.723Z,8.57
2023-05-21T16:23:38.660Z,7.03
2023-05-21T16:26:07.298Z,7.63
2023-05-21T16:28:37.458Z,6.75
2023-05-21T16:31:05.796Z,5.30
2023-05-21T16:33:33.722Z,8.40
2023-05-21T16:36:01.597Z,5.57
2023-05-21T16:38:29.232Z,11.45
2023-05-21T16:40:57.538Z,8.60
2023-05-21T16:43:26.204Z,9.30
2023-05-21T16:45:54.046Z,8.50
2023-05-21T16:48:22.221Z,6.35
2023-05-21T16:50:50.081Z,5.25
2023-05-21T16:53:18.318Z,9.75
2023-05-21T16:55:46.036Z,11.25
2023-05-21T16:58:14.509Z,11.43
2023-05-21T17:00:42.390Z,14.10
2023-05-21T17:03:11.247Z,10.43
2023-05-21T17:05:39.829Z,5.90
2023-05-21T17:08:08.786Z,8.00
2023-05-21T17:10:36.362Z,7.40
2023-05-21T17:13:17.673Z,8.82
2023-05-21T17:15:49.013Z,9.40
2023-05-21T17:18:16.766Z,18.10
2023-05-21T17:20:44.503Z,8.52
2023-05-21T17:23:13.307Z,6.93
2023-05-21T17:25:41.908Z,8.32
2023-05-21T17:28:09.640Z,9.23
2023-05-21T17:30:37.647Z,11.55
2023-05-21T17:33:06.621Z,104.65
2023-05-21T17:35:35.276Z,11.93
2023-05-21T17:38:03.050Z,161.90
2023-05-21T17:40:30.842Z,134.27
2023-05-21T17:42:59.164Z,14.15
2023-05-21T17:45:27.044Z,11.02
2023-05-21T17:47:59.680Z,398.00
2023-05-21T17:50:28.291Z,375.40
2023-05-21T17:52:56.434Z,8.33
2023-05-21T17:55:23.972Z,299.75
2023-05-21T17:57:51.604Z,728.45
2023-05-21T18:00:19.654Z,1200.47
2023-05-21T18:02:47.246Z,1193.07
2023-05-21T18:05:14.920Z,1198.97
2023-05-21T18:07:42.919Z,1195.20
2023-05-21T18:10:10.827Z,1192.68
2023-05-21T18:12:39.460Z,1192.47
2023-05-21T18:15:07.782Z,1190.47
2023-05-21T18:17:35.444Z,1187.72
2023-05-21T18:20:04.506Z,1188.65
2023-05-21T18:22:32.167Z,1186.47
2023-05-21T18:24:59.693Z,1182.18
2023-05-21T18:27:27.440Z,1184.07
2023-05-21T18:29:54.965Z,1182.63
2023-05-21T18:32:23.483Z,1179.65
2023-05-21T18:34:51.267Z,1177.15
2023-05-21T18:37:18.792Z,1175.00
2023-05-21T18:39:46.373Z,1173.28
2023-05-21T18:42:14.916Z,1173.15
2023-05-21T18:44:45.795Z,1171.40
2023-05-21T18:47:13.985Z,1169.70
2023-05-21T18:49:41.530Z,1171.47
2023-05-21T18:52:09.615Z,1168.75
2023-05-21T18:54:38.251Z,1171.55
2023-05-21T18:57:06.410Z,1170.90
2023-05-21T18:59:34.542Z,1169.28
2023-05-21T19:02:04.463Z,1167.75
2023-05-21T19:04:32.382Z,1166.47
2023-05-21T19:07:00.537Z,1165.40
2023-05-21T19:09:28.093Z,1165.75
2023-05-21T19:11:56.497Z,1165.18
2023-05-21T19:14:24.242Z,1162.55
2023-05-21T19:16:52.471Z,1163.88
2023-05-21T19:19:20.491Z,1161.10
2023-05-21T19:21:48.684Z,1159.50
2023-05-21T19:24:16.423Z,1159.03
2023-05-21T19:26:43.957Z,1155.57
2023-05-21T19:29:12.075Z,1154.85
2023-05-21T19:31:40.034Z,1153.93
2023-05-21T19:34:10.713Z,1149.05
2023-05-21T19:36:52.164Z,1146.97
2023-05-21T19:39:21.687Z,1146.97
2023-05-21T19:41:49.340Z,1145.28
2023-05-21T19:44:17.442Z,1140.68
2023-05-21T19:46:45.583Z,1139.63
2023-05-21T19:49:14.613Z,1138.32
2023-05-21T19:51:42.382Z,1135.10
2023-05-21T19:54:10.567Z,1133.40
2023-05-21T19:56:38.549Z,1133.50
2023-05-21T19:59:06.403Z,1127.37
2023-05-21T20:01:39.407Z,1129.28
2023-05-21T20:04:07.767Z,1126.15
2023-05-21T20:06:36.184Z,1122.22
2023-05-21T20:09:05.690Z,1116.17
2023-05-21T20:11:34.494Z,1114.65
2023-05-21T20:14:02.375Z,1110.20
2023-05-21T20:16:30.473Z,1098.68
2023-05-21T20:18:58.402Z,1058.00
2023-05-21T20:21:27.228Z,1042.03
2023-05-21T20:23:55.308Z,1040.38
2023-05-21T20:26:23.360Z,1044.13
2023-05-21T20:28:51.438Z,1042.60
2023-05-21T20:31:19.107Z,1043.55
2023-05-21T20:33:50.754Z,1039.23
2023-05-21T20:36:18.664Z,1043.53
2023-05-21T20:38:47.244Z,1040.57
2023-05-21T20:41:15.205Z,1036.45
2023-05-21T20:43:45.306Z,1053.05
2023-05-21T20:46:12.970Z,1050.22
2023-05-21T20:48:41.857Z,1048.78
2023-05-21T20:51:09.956Z,1040.78
2023-05-21T20:53:37.504Z,1037.57
2023-05-21T20:56:08.649Z,1040.22
2023-05-21T20:58:36.439Z,1045.70
2023-05-21T21:01:04.669Z,1045.88
2023-05-21T21:03:34.220Z,1044.45
2023-05-21T21:06:03.149Z,1044.47
2023-05-21T21:08:31.944Z,1044.83
2023-05-21T21:11:00.223Z,1042.53
2023-05-21T21:13:27.783Z,1043.75
2023-05-21T21:15:55.462Z,1046.32
2023-05-21T21:18:23.020Z,1051.80
2023-05-21T21:20:51.013Z,1051.15
2023-05-21T21:23:18.552Z,1051.47
2023-05-21T21:25:46.414Z,1054.93
2023-05-21T21:28:16.565Z,1054.43
2023-05-21T21:30:45.009Z,1052.50
2023-05-21T21:33:14.517Z,1053.40
2023-05-21T21:35:42.990Z,1058.25
2023-05-21T21:38:10.755Z,1096.05
2023-05-21T21:40:38.539Z,1104.80
2023-05-21T21:43:06.409Z,1100.33
2023-05-21T21:45:34.123Z,1099.13
2023-05-21T21:48:03.237Z,1097.18
2023-05-21T21:50:31.453Z,1098.07
2023-05-21T21:52:59.980Z,982.63
2023-05-21T21:55:28.197Z,1094.30
2023-05-21T21:57:56.731Z,1095.30
2023-05-21T22:00:26.767Z,1011.77
2023-05-21T22:02:54.762Z,604.67
2023-05-21T22:05:22.695Z,751.80
2023-05-21T22:07:51.605Z,975.85
2023-05-21T22:10:19.422Z,1076.13
2023-05-21T22:12:47.141Z,844.53
2023-05-21T22:15:25.029Z,1051.17
2023-05-21T22:17:53.505Z,1075.82
2023-05-21T22:20:26.022Z,1071.13
2023-05-21T22:22:55.303Z,809.45
2023-05-21T22:25:23.334Z,846.95
2023-05-21T22:27:52.268Z,1083.93
2023-05-21T22:30:20.376Z,1084.13
2023-05-21T22:32:48.463Z,1085.10
2023-05-21T22:35:16.321Z,1080.97
2023-05-21T22:37:43.889Z,1080.93
2023-05-21T22:40:12.020Z,1077.53
2023-05-21T22:42:39.584Z,1077.00
2023-05-21T22:45:08.508Z,1073.00
2023-05-21T22:47:39.491Z,1067.53
2023-05-21T22:50:08.219Z,1067.00
2023-05-21T22:52:38.178Z,1061.28
2023-05-21T22:55:06.402Z,1053.28
2023-05-21T22:57:33.910Z,1040.22
2023-05-21T23:00:01.877Z,1039.70
2023-05-21T23:02:29.498Z,1043.63
2023-05-21T23:04:58.215Z,1046.72
2023-05-21T23:07:26.277Z,1052.95
2023-05-21T23:09:53.838Z,1050.97
2023-05-21T23:12:21.436Z,1054.35
2023-05-21T23:14:49.019Z,1059.57
2023-05-21T23:17:16.743Z,1060.47
2023-05-21T23:19:44.306Z,1063.15
2023-05-21T23:22:12.004Z,1063.75
2023-05-21T23:24:39.646Z,1062.43
2023-05-21T23:27:07.298Z,1062.35
2023-05-21T23:29:34.817Z,1053.95
2023-05-21T23:32:05.225Z,1084.75
2023-05-21T23:34:33.030Z,1076.60
2023-05-21T23:37:01.023Z,1080.65
2023-05-21T23:39:28.842Z,1075.87
2023-05-21T23:41:56.784Z,1074.37
2023-05-21T23:44:24.621Z,1073.63
2023-05-21T23:46:52.751Z,1075.03
2023-05-21T23:49:20.527Z,1075.18
2023-05-21T23:51:50.729Z,1075.85
2023-05-21T23:54:18.886Z,1072.25
2023-05-21T23:56:46.723Z,1052.13
2023-05-21T23:59:16.895Z,1054.40
